Time;durP1;ratioP1;P1;durP2;ratioP2;P2;SDS_P1;SDS_P2;PMS_P1;PMS_P2;Temp;Humidity;BMP_temperature;BMP_pressure;BME280_temperature;BME280_humidity;BME280_pressure;Samples;Min_cycle;Max_cycle;Signal;HPM_P1;HPM_P2
2021/12/09 00:00:32;;;;;;;49.97;22.40;;;;;;;;;;10413016;28;20206;-74
2021/12/09 00:05:35;;;;;;;53.05;21.75;;;;;;;;;;10413396;28;20219;-74
2021/12/09 00:10:37;;;;;;;55.00;21.77;;;;;;;;;;10410731;28;20187;-74
2021/12/09 00:15:38;;;;;;;52.97;22.40;;;;;;;;;;10416566;28;20203;-75
2021/12/09 00:20:39;;;;;;;53.58;21.80;;;;;;;;;;10411965;28;20187;-76
2021/12/09 00:25:40;;;;;;;56.30;22.17;;;;;;;;;;10413871;28;20203;-74
2021/12/09 00:30:44;;;;;;;57.08;22.60;;;;;;;;;;10413668;28;20221;-73
2021/12/09 00:35:55;;;;;;;53.70;21.37;;;;;;;;;;10416716;28;20718;-73
2021/12/09 00:40:56;;;;;;;57.60;22.58;;;;;;;;;;10415193;28;20262;-73
2021/12/09 00:45:57;;;;;;;58.00;23.13;;;;;;;;;;10393427;28;20775;-73
2021/12/09 00:50:59;;;;;;;57.45;22.77;;;;;;;;;;10411266;28;20696;-73
2021/12/09 00:56:01;;;;;;;49.87;21.63;;;;;;;;;;10410153;28;20769;-72
2021/12/09 01:01:02;;;;;;;57.00;23.42;;;;;;;;;;10413108;28;20724;-73
2021/12/09 01:06:04;;;;;;;58.42;22.55;;;;;;;;;;10414970;28;20242;-73
2021/12/09 01:11:05;;;;;;;54.13;22.63;;;;;;;;;;10412282;28;20191;-73
2021/12/09 01:16:07;;;;;;;51.38;22.77;;;;;;;;;;10410525;28;20862;-74
2021/12/09 01:21:08;;;;;;;54.25;23.33;;;;;;;;;;10408999;28;20202;-73
2021/12/09 01:26:10;;;;;;;55.13;24.50;;;;;;;;;;10411478;28;20210;-73
2021/12/09 01:31:11;;;;;;;58.60;23.57;;;;;;;;;;10414058;28;20203;-73
2021/12/09 01:36:12;;;;;;;54.90;23.73;;;;;;;;;;10410434;28;20203;-73
2021/12/09 01:41:14;;;;;;;56.85;24.05;;;;;;;;;;10409287;28;20178;-73
2021/12/09 01:46:16;;;;;;;63.28;25.48;;;;;;;;;;10411001;28;20358;-73
2021/12/09 01:51:17;;;;;;;63.87;23.60;;;;;;;;;;10410583;28;20187;-73
2021/12/09 01:56:21;;;;;;;54.25;22.88;;;;;;;;;;10409584;28;20182;-74
2021/12/09 02:01:22;;;;;;;57.75;23.77;;;;;;;;;;10410295;28;20214;-74
2021/12/09 02:06:25;;;;;;;54.60;23.17;;;;;;;;;;10410468;28;20215;-72
2021/12/09 02:11:26;;;;;;;53.53;23.17;;;;;;;;;;10407170;28;20264;-72
2021/12/09 02:16:27;;;;;;;58.80;23.23;;;;;;;;;;10408306;28;20211;-73
2021/12/09 02:21:30;;;;;;;56.75;23.05;;;;;;;;;;10408307;28;20699;-73
2021/12/09 02:26:34;;;;;;;51.67;23.98;;;;;;;;;;10408902;28;20755;-72
2021/12/09 02:31:36;;;;;;;58.22;22.80;;;;;;;;;;10411753;28;20241;-73
2021/12/09 02:36:40;;;;;;;56.47;23.45;;;;;;;;;;10418439;28;20209;-73
2021/12/09 02:41:42;;;;;;;58.47;23.73;;;;;;;;;;10420220;28;20187;-74
2021/12/09 02:46:43;;;;;;;57.58;22.98;;;;;;;;;;10415740;28;20223;-73
2021/12/09 02:51:44;;;;;;;47.87;22.40;;;;;;;;;;10417855;28;21002;-73
2021/12/09 02:56:46;;;;;;;54.63;22.77;;;;;;;;;;10420187;28;20180;-73
2021/12/09 03:06:56;;;;;;;55.08;23.33;;;;;;;;;;10417510;28;20206;-73
2021/12/09 03:12:03;;;;;;;61.67;23.83;;;;;;;;;;10413901;28;20207;-73
2021/12/09 03:17:05;;;;;;;59.55;23.38;;;;;;;;;;10432191;28;20223;-73
2021/12/09 03:22:06;;;;;;;56.88;22.75;;;;;;;;;;10419448;28;20701;-73
2021/12/09 03:27:08;;;;;;;57.10;23.23;;;;;;;;;;10413291;28;20686;-73
2021/12/09 03:32:11;;;;;;;55.25;22.88;;;;;;;;;;10413539;28;20306;-73
2021/12/09 03:37:17;;;;;;;53.97;21.17;;;;;;;;;;10411374;28;20200;-72
2021/12/09 03:42:20;;;;;;;54.35;24.02;;;;;;;;;;10415401;28;20222;-72
2021/12/09 03:47:24;;;;;;;50.80;23.33;;;;;;;;;;10416071;28;20252;-72
2021/12/09 03:52:26;;;;;;;60.75;23.80;;;;;;;;;;10414668;28;20464;-73
2021/12/09 03:57:27;;;;;;;52.47;22.70;;;;;;;;;;10415933;28;20187;-73
2021/12/09 04:02:28;;;;;;;63.47;24.67;;;;;;;;;;10412822;28;20257;-73
2021/12/09 04:07:30;;;;;;;55.60;22.33;;;;;;;;;;10413551;28;20653;-73
2021/12/09 04:12:31;;;;;;;54.08;23.17;;;;;;;;;;10412066;28;20174;-72
2021/12/09 04:17:32;;;;;;;52.65;21.75;;;;;;;;;;10410880;28;20227;-72
2021/12/09 04:22:33;;;;;;;55.58;24.10;;;;;;;;;;10410089;28;20203;-73
2021/12/09 04:27:34;;;;;;;57.72;23.65;;;;;;;;;;10417391;28;20298;-72
2021/12/09 04:32:35;;;;;;;54.63;22.60;;;;;;;;;;10418547;28;20977;-73
2021/12/09 04:37:36;;;;;;;57.33;23.08;;;;;;;;;;10414679;28;20211;-73
2021/12/09 04:42:37;;;;;;;65.38;23.95;;;;;;;;;;10416067;28;20245;-73
2021/12/09 04:47:40;;;;;;;62.65;24.33;;;;;;;;;;10416735;28;20272;-73
2021/12/09 04:52:41;;;;;;;59.40;24.10;;;;;;;;;;10417730;28;20191;-73
2021/12/09 04:57:43;;;;;;;58.67;24.23;;;;;;;;;;10412266;28;20187;-73
2021/12/09 05:07:45;;;;;;;61.67;24.85;;;;;;;;;;10411648;28;20880;-73
2021/12/09 05:12:46;;;;;;;57.13;23.90;;;;;;;;;;10412169;28;20195;-74
2021/12/09 05:17:47;;;;;;;62.95;24.50;;;;;;;;;;10406584;28;20210;-73
2021/12/09 05:22:48;;;;;;;66.72;23.95;;;;;;;;;;10413295;28;20726;-73
2021/12/09 05:27:49;;;;;;;59.70;25.35;;;;;;;;;;10411799;28;20202;-73
2021/12/09 05:32:51;;;;;;;60.85;25.63;;;;;;;;;;10406180;28;20300;-73
2021/12/09 05:37:52;;;;;;;64.38;24.90;;;;;;;;;;10410597;28;20214;-73
2021/12/09 05:42:53;;;;;;;61.08;25.63;;;;;;;;;;10411888;28;20210;-73
2021/12/09 05:47:54;;;;;;;58.27;25.23;;;;;;;;;;10410390;28;20210;-73
2021/12/09 05:52:55;;;;;;;62.80;24.77;;;;;;;;;;10409941;28;20679;-73
2021/12/09 05:57:56;;;;;;;64.03;26.73;;;;;;;;;;10409506;28;20182;-73
2021/12/09 06:02:57;;;;;;;66.03;27.73;;;;;;;;;;10408398;28;20214;-72
2021/12/09 06:07:58;;;;;;;70.35;25.67;;;;;;;;;;10406232;28;20742;-74
2021/12/09 06:13:00;;;;;;;64.93;25.10;;;;;;;;;;10408790;28;20198;-73
2021/12/09 06:18:01;;;;;;;67.25;25.17;;;;;;;;;;10406814;28;20740;-74
2021/12/09 06:23:02;;;;;;;70.28;26.08;;;;;;;;;;10407980;28;20215;-74
2021/12/09 06:28:03;;;;;;;58.80;25.17;;;;;;;;;;10406514;28;20236;-74
2021/12/09 06:33:05;;;;;;;69.68;26.83;;;;;;;;;;10408922;28;20218;-73
2021/12/09 06:38:12;;;;;;;62.42;26.08;;;;;;;;;;10406296;28;20774;-72
2021/12/09 06:43:16;;;;;;;77.60;27.13;;;;;;;;;;10410779;28;20210;-72
2021/12/09 06:48:17;;;;;;;63.92;27.08;;;;;;;;;;10406934;28;20203;-73
2021/12/09 06:53:18;;;;;;;69.50;28.43;;;;;;;;;;10407897;28;20190;-72
2021/12/09 06:58:21;;;;;;;71.65;27.73;;;;;;;;;;10409977;28;21981;-73
2021/12/09 07:03:23;;;;;;;72.43;29.52;;;;;;;;;;10404253;28;20211;-72
2021/12/09 07:08:24;;;;;;;73.68;29.45;;;;;;;;;;10407206;28;20258;-72
2021/12/09 07:13:25;;;;;;;82.10;31.10;;;;;;;;;;10407011;28;20636;-72
2021/12/09 07:18:27;;;;;;;92.25;32.67;;;;;;;;;;10409976;28;20226;-73
2021/12/09 07:23:30;;;;;;;97.40;33.20;;;;;;;;;;10430417;28;20218;-73
2021/12/09 07:28:32;;;;;;;114.82;40.97;;;;;;;;;;10412455;28;20175;-72
2021/12/09 07:33:33;;;;;;;90.13;33.35;;;;;;;;;;10410576;28;20208;-72
2021/12/09 07:38:34;;;;;;;94.00;32.87;;;;;;;;;;10408912;28;20280;-71
2021/12/09 07:43:35;;;;;;;84.67;31.57;;;;;;;;;;10414505;28;20774;-71
2021/12/09 07:48:36;;;;;;;68.20;29.23;;;;;;;;;;10410267;28;20206;-71
2021/12/09 07:53:37;;;;;;;76.25;28.75;;;;;;;;;;10412517;28;20180;-72
2021/12/09 07:58:38;;;;;;;68.50;27.30;;;;;;;;;;10410986;28;20186;-72
2021/12/09 08:03:39;;;;;;;63.55;27.48;;;;;;;;;;10407706;28;20223;-72
2021/12/09 08:08:41;;;;;;;71.05;28.67;;;;;;;;;;10407187;28;20222;-72
2021/12/09 08:13:42;;;;;;;80.80;32.13;;;;;;;;;;10413449;28;20187;-72
2021/12/09 08:19:05;;;;;;;66.55;29.63;;;;;;;;;;10409245;28;20215;-72
2021/12/09 08:24:07;;;;;;;67.37;27.43;;;;;;;;;;10411639;28;20226;-72
2021/12/09 08:29:08;;;;;;;63.60;25.20;;;;;;;;;;10407806;28;20757;-72
2021/12/09 08:34:09;;;;;;;62.92;26.77;;;;;;;;;;10412471;28;20222;-72
2021/12/09 08:39:10;;;;;;;66.13;27.92;;;;;;;;;;10406821;28;20290;-72
2021/12/09 08:44:11;;;;;;;66.72;27.60;;;;;;;;;;10406447;28;20753;-72
2021/12/09 08:49:12;;;;;;;68.60;27.43;;;;;;;;;;10409955;28;20207;-72
2021/12/09 08:54:14;;;;;;;63.95;27.38;;;;;;;;;;10412555;28;20179;-72
2021/12/09 08:59:15;;;;;;;63.87;27.07;;;;;;;;;;10414599;28;20325;-72
2021/12/09 09:04:19;;;;;;;68.82;28.40;;;;;;;;;;10412756;28;20218;-72
2021/12/09 09:09:20;;;;;;;65.68;27.40;;;;;;;;;;10409028;28;20306;-72
2021/12/09 09:14:21;;;;;;;70.00;27.73;;;;;;;;;;10411672;28;20188;-72
2021/12/09 09:19:22;;;;;;;71.93;28.45;;;;;;;;;;10400211;28;20268;-72
2021/12/09 09:24:24;;;;;;;66.03;28.13;;;;;;;;;;10411856;28;20664;-72
2021/12/09 09:29:25;;;;;;;68.97;28.98;;;;;;;;;;10411364;28;20312;-70
2021/12/09 09:34:26;;;;;;;71.30;29.75;;;;;;;;;;10409983;28;20211;-71
2021/12/09 09:39:30;;;;;;;62.92;26.85;;;;;;;;;;10408481;28;20226;-71
2021/12/09 09:44:45;;;;;;;61.15;26.80;;;;;;;;;;10410096;28;20862;-72
2021/12/09 09:49:46;;;;;;;68.28;27.52;;;;;;;;;;10412472;28;20224;-71
2021/12/09 09:54:47;;;;;;;65.55;29.27;;;;;;;;;;10412111;28;20781;-72
2021/12/09 09:59:48;;;;;;;65.05;27.70;;;;;;;;;;10410944;28;20194;-72
2021/12/09 10:04:57;;;;;;;71.13;29.55;;;;;;;;;;10410973;28;20219;-72
2021/12/09 10:09:59;;;;;;;69.05;28.58;;;;;;;;;;10406700;28;20261;-72
2021/12/09 10:15:01;;;;;;;65.70;29.27;;;;;;;;;;10409476;28;20187;-71
2021/12/09 10:20:05;;;;;;;69.93;27.45;;;;;;;;;;10412315;28;20268;-72
2021/12/09 10:25:18;;;;;;;67.43;28.75;;;;;;;;;;10408002;28;20834;-71
2021/12/09 10:30:22;;;;;;;97.20;32.25;;;;;;;;;;10407524;28;20184;-72
2021/12/09 10:35:23;;;;;;;85.35;30.65;;;;;;;;;;10411174;28;20191;-72
2021/12/09 10:40:30;;;;;;;73.68;28.90;;;;;;;;;;10407013;28;20179;-72
2021/12/09 10:45:31;;;;;;;73.82;28.23;;;;;;;;;;10407975;28;20207;-71
2021/12/09 10:55:35;;;;;;;77.45;29.00;;;;;;;;;;10415767;28;20187;-72
2021/12/09 11:00:36;;;;;;;81.10;30.17;;;;;;;;;;10417974;28;20191;-72
2021/12/09 11:05:51;;;;;;;70.75;30.13;;;;;;;;;;10418320;28;20697;-71
2021/12/09 11:11:12;;;;;;;79.32;31.00;;;;;;;;;;10417438;28;20187;-71
2021/12/09 11:16:23;;;;;;;77.43;30.55;;;;;;;;;;10416215;28;20312;-72
2021/12/09 11:21:31;;;;;;;78.20;29.67;;;;;;;;;;10419364;28;20280;-71
2021/12/09 11:26:45;;;;;;;69.55;29.85;;;;;;;;;;10414791;28;20238;-71
2021/12/09 11:31:53;;;;;;;70.82;29.23;;;;;;;;;;10416371;28;20237;-72
2021/12/09 11:36:58;;;;;;;70.47;28.75;;;;;;;;;;10415955;28;20207;-72
2021/12/09 11:42:17;;;;;;;77.10;30.35;;;;;;;;;;10413723;28;20176;-72
2021/12/09 11:47:19;;;;;;;81.07;31.33;;;;;;;;;;10412369;28;20298;-70
2021/12/09 11:52:22;;;;;;;69.88;29.67;;;;;;;;;;10414268;28;20381;-70
2021/12/09 11:57:42;;;;;;;74.75;30.45;;;;;;;;;;10416136;28;20186;-72
2021/12/09 12:13:34;;;;;;;75.45;29.65;;;;;;;;;;10412530;28;20183;-70
2021/12/09 12:19:47;;;;;;;75.25;30.83;;;;;;;;;;10413640;28;20237;-69
2021/12/09 12:24:39;;;;;;;79.93;30.50;;;;;;;;;;10394858;28;20208;-70
2021/12/09 12:40:38;;;;;;;82.03;32.03;;;;;;;;;;10406147;28;20888;-70
2021/12/09 12:51:05;;;;;;;76.22;31.02;;;;;;;;;;10406616;28;20274;-69
2021/12/09 12:56:09;;;;;;;82.05;33.00;;;;;;;;;;10407369;28;20201;-70
2021/12/09 13:01:17;;;;;;;101.82;33.22;;;;;;;;;;10405826;28;20238;-70
2021/12/09 13:06:39;;;;;;;91.40;33.25;;;;;;;;;;10407593;28;20246;-69
2021/12/09 13:11:47;;;;;;;102.83;38.40;;;;;;;;;;10411371;28;20279;-70
2021/12/09 13:17:16;;;;;;;91.40;33.58;;;;;;;;;;10408872;28;20211;-71
2021/12/09 13:22:28;;;;;;;86.40;33.35;;;;;;;;;;10411857;28;20176;-71
2021/12/09 13:28:16;;;;;;;88.97;34.25;;;;;;;;;;10408503;28;20210;-71
2021/12/09 13:38:15;;;;;;;96.20;35.15;;;;;;;;;;10410246;28;20206;-70
2021/12/09 13:45:53;;;;;;;107.38;35.25;;;;;;;;;;10408375;28;20279;-71
2021/12/09 13:49:04;;;;;;;102.95;35.28;;;;;;;;;;10407624;28;20777;-71
2021/12/09 13:54:18;;;;;;;103.78;37.80;;;;;;;;;;10411223;28;20210;-71
2021/12/09 13:59:24;;;;;;;98.65;34.15;;;;;;;;;;10408810;28;20281;-71
2021/12/09 14:04:36;;;;;;;88.38;32.42;;;;;;;;;;10401524;28;20215;-71
2021/12/09 14:09:40;;;;;;;101.53;35.42;;;;;;;;;;10406951;28;20226;-72
2021/12/09 14:14:51;;;;;;;100.95;35.20;;;;;;;;;;10407394;28;20240;-72
2021/12/09 14:20:03;;;;;;;91.38;34.47;;;;;;;;;;10405748;28;20288;-72
2021/12/09 14:25:07;;;;;;;101.88;35.80;;;;;;;;;;10408923;28;20755;-72
2021/12/09 14:30:09;;;;;;;109.00;37.22;;;;;;;;;;10415888;28;20258;-72
2021/12/09 14:35:19;;;;;;;116.55;37.55;;;;;;;;;;10419409;28;20218;-71
2021/12/09 14:40:24;;;;;;;93.72;33.58;;;;;;;;;;10415061;28;20198;-71
2021/12/09 14:45:36;;;;;;;108.47;37.75;;;;;;;;;;10417352;28;20227;-72
2021/12/09 14:50:39;;;;;;;112.30;38.22;;;;;;;;;;10415823;28;20198;-71
2021/12/09 14:55:43;;;;;;;95.55;35.92;;;;;;;;;;10415884;28;20198;-71
2021/12/09 15:00:58;;;;;;;106.43;37.05;;;;;;;;;;10402918;28;20219;-73
2021/12/09 15:06:03;;;;;;;99.32;35.78;;;;;;;;;;10395252;28;21176;-71
2021/12/09 15:11:13;;;;;;;105.43;36.05;;;;;;;;;;10414121;28;20191;-71
2021/12/09 15:16:19;;;;;;;101.45;36.45;;;;;;;;;;10412308;28;20672;-71
2021/12/09 15:21:23;;;;;;;111.53;36.28;;;;;;;;;;10414409;28;20191;-71
2021/12/09 15:26:32;;;;;;;106.15;36.25;;;;;;;;;;10416296;28;20230;-71
2021/12/09 15:31:34;;;;;;;109.03;36.50;;;;;;;;;;10416143;28;20206;-72
2021/12/09 15:36:36;;;;;;;98.88;34.88;;;;;;;;;;10415829;28;20211;-72
2021/12/09 15:41:39;;;;;;;97.50;33.95;;;;;;;;;;10415394;28;20186;-72
2021/12/09 15:46:51;;;;;;;97.03;35.90;;;;;;;;;;10417557;28;20242;-71
2021/12/09 15:51:53;;;;;;;114.03;36.30;;;;;;;;;;10401873;28;20310;-72
2021/12/09 15:56:57;;;;;;;113.45;40.75;;;;;;;;;;10401519;28;20176;-72
2021/12/09 16:02:02;;;;;;;113.30;37.10;;;;;;;;;;10408440;28;20207;-71
2021/12/09 16:07:03;;;;;;;110.75;36.40;;;;;;;;;;10410488;28;20241;-70
2021/12/09 16:12:07;;;;;;;97.57;36.45;;;;;;;;;;10410607;28;20176;-69
2021/12/09 16:17:08;;;;;;;108.85;35.47;;;;;;;;;;10412844;28;20211;-69
2021/12/09 16:27:24;;;;;;;96.10;35.63;;;;;;;;;;10413419;28;20586;-70
2021/12/09 16:32:25;;;;;;;100.47;35.03;;;;;;;;;;10412989;28;20721;-70
2021/12/09 16:37:26;;;;;;;115.45;38.35;;;;;;;;;;10412365;28;20203;-72
2021/12/09 16:42:27;;;;;;;101.97;36.22;;;;;;;;;;10417798;28;20416;-71
2021/12/09 16:47:29;;;;;;;99.32;35.00;;;;;;;;;;10414553;28;20710;-70
2021/12/09 16:52:30;;;;;;;94.80;33.90;;;;;;;;;;10417192;28;20270;-70
2021/12/09 16:57:42;;;;;;;106.05;35.80;;;;;;;;;;10417031;28;20175;-70
2021/12/09 17:02:45;;;;;;;95.25;35.38;;;;;;;;;;10414319;28;20247;-73
2021/12/09 17:07:47;;;;;;;93.53;34.30;;;;;;;;;;10412910;28;20289;-70
2021/12/09 17:12:48;;;;;;;98.93;34.23;;;;;;;;;;10406233;28;20202;-71
2021/12/09 17:17:50;;;;;;;122.75;37.70;;;;;;;;;;10409057;28;20203;-73
2021/12/09 17:22:52;;;;;;;115.03;37.60;;;;;;;;;;10412986;28;20594;-70
2021/12/09 17:27:54;;;;;;;110.13;36.78;;;;;;;;;;10412569;28;20691;-71
2021/12/09 17:32:56;;;;;;;122.60;38.72;;;;;;;;;;10410474;28;20215;-70
2021/12/09 17:37:58;;;;;;;135.50;38.08;;;;;;;;;;10404714;28;20210;-69
2021/12/09 17:42:59;;;;;;;129.63;39.25;;;;;;;;;;10406925;28;20205;-70
2021/12/09 17:48:05;;;;;;;131.20;39.47;;;;;;;;;;10410586;28;20206;-70
2021/12/09 17:53:08;;;;;;;146.38;43.17;;;;;;;;;;10408515;28;20187;-70
2021/12/09 17:58:10;;;;;;;154.45;43.65;;;;;;;;;;10407553;28;20183;-70
2021/12/09 18:03:11;;;;;;;154.60;43.47;;;;;;;;;;10408538;28;20712;-70
2021/12/09 18:08:14;;;;;;;139.68;39.83;;;;;;;;;;10404841;28;20724;-71
2021/12/09 18:13:16;;;;;;;153.18;41.95;;;;;;;;;;10407809;28;20245;-71
2021/12/09 18:18:18;;;;;;;120.57;39.10;;;;;;;;;;10410443;28;20246;-70
2021/12/09 18:23:19;;;;;;;120.35;38.50;;;;;;;;;;10405549;28;20211;-72
2021/12/09 18:28:21;;;;;;;129.73;39.83;;;;;;;;;;10407312;28;20190;-71
2021/12/09 18:33:23;;;;;;;125.93;41.63;;;;;;;;;;10404314;28;20735;-72
2021/12/09 18:38:25;;;;;;;114.78;36.45;;;;;;;;;;10412079;28;20207;-71
2021/12/09 18:43:26;;;;;;;118.00;39.33;;;;;;;;;;10411090;28;20199;-71
2021/12/09 18:48:31;;;;;;;145.68;43.85;;;;;;;;;;10408757;28;20661;-71
2021/12/09 18:53:33;;;;;;;123.07;39.53;;;;;;;;;;10408404;28;20743;-71
2021/12/09 18:58:34;;;;;;;124.63;40.03;;;;;;;;;;10399036;28;20183;-71
2021/12/09 19:03:36;;;;;;;122.45;38.17;;;;;;;;;;10409698;28;20222;-71
2021/12/09 19:08:37;;;;;;;120.53;38.25;;;;;;;;;;10408029;23;20253;-73
2021/12/09 19:13:39;;;;;;;111.15;37.47;;;;;;;;;;10406083;28;20257;-72
2021/12/09 19:18:40;;;;;;;125.88;37.17;;;;;;;;;;10411899;28;20218;-72
2021/12/09 19:23:43;;;;;;;124.15;37.75;;;;;;;;;;10589096;23;20316;-75
2021/12/09 19:28:44;;;;;;;108.72;36.70;;;;;;;;;;10449928;28;20185;-79
2021/12/09 19:33:46;;;;;;;117.80;36.67;;;;;;;;;;10421170;28;20313;-78
2021/12/09 19:38:49;;;;;;;124.20;39.13;;;;;;;;;;10383514;28;20276;-78
2021/12/09 19:43:51;;;;;;;117.63;37.65;;;;;;;;;;10368379;28;21390;-76
2021/12/09 19:48:53;;;;;;;112.93;37.67;;;;;;;;;;10406446;28;20794;-79
2021/12/09 19:53:55;;;;;;;128.77;41.13;;;;;;;;;;10407576;28;20689;-78
2021/12/09 19:58:57;;;;;;;126.65;43.10;;;;;;;;;;10401017;28;20784;-79
2021/12/09 20:03:59;;;;;;;126.60;42.67;;;;;;;;;;10368410;28;20215;-78
2021/12/09 20:09:00;;;;;;;110.13;38.47;;;;;;;;;;10406497;28;20262;-78
2021/12/09 20:14:01;;;;;;;135.63;44.03;;;;;;;;;;10391498;28;20194;-78
2021/12/09 20:19:02;;;;;;;115.47;38.28;;;;;;;;;;10392481;28;20222;-79
2021/12/09 20:24:03;;;;;;;107.25;36.10;;;;;;;;;;10383174;28;20309;-79
2021/12/09 20:29:05;;;;;;;117.43;35.97;;;;;;;;;;10400346;28;20183;-80
2021/12/09 20:34:06;;;;;;;106.60;35.88;;;;;;;;;;10421984;28;20283;-80
2021/12/09 20:39:07;;;;;;;109.00;37.33;;;;;;;;;;10447058;28;20698;-80
2021/12/09 20:44:08;;;;;;;104.45;35.00;;;;;;;;;;10459697;28;20203;-80
2021/12/09 20:49:12;;;;;;;132.38;45.40;;;;;;;;;;10446755;28;20209;-78
2021/12/09 20:54:13;;;;;;;130.15;47.47;;;;;;;;;;10453751;28;20209;-79
2021/12/09 20:59:15;;;;;;;126.68;38.47;;;;;;;;;;10458050;28;20179;-80
2021/12/09 21:04:16;;;;;;;109.72;36.40;;;;;;;;;;10452951;28;20697;-80
2021/12/09 21:09:17;;;;;;;109.25;35.75;;;;;;;;;;10453421;28;20265;-80
2021/12/09 21:14:20;;;;;;;113.15;35.83;;;;;;;;;;10468346;28;20213;-80
2021/12/09 21:19:21;;;;;;;110.45;37.03;;;;;;;;;;10463401;28;20216;-80
2021/12/09 21:24:22;;;;;;;116.97;35.95;;;;;;;;;;10445488;28;20222;-79
2021/12/09 21:29:24;;;;;;;108.75;34.40;;;;;;;;;;10457138;28;20220;-76
2021/12/09 21:34:39;;;;;;;117.95;35.50;;;;;;;;;;10459802;28;20218;-76
2021/12/09 21:39:40;;;;;;;110.57;35.42;;;;;;;;;;10453012;28;20182;-76
2021/12/09 21:44:42;;;;;;;109.85;33.75;;;;;;;;;;10456946;28;20833;-76
2021/12/09 21:49:43;;;;;;;123.60;36.78;;;;;;;;;;10454325;28;20884;-75
2021/12/09 21:54:44;;;;;;;116.93;36.70;;;;;;;;;;10441160;28;20202;-75
2021/12/09 21:59:45;;;;;;;122.90;37.25;;;;;;;;;;10434086;28;20186;-76
2021/12/09 22:04:47;;;;;;;135.50;36.92;;;;;;;;;;10441997;28;20213;-76
2021/12/09 22:09:48;;;;;;;128.82;34.90;;;;;;;;;;10433969;28;20216;-74
2021/12/09 22:14:49;;;;;;;125.57;36.50;;;;;;;;;;10434829;28;20213;-75
2021/12/09 22:19:50;;;;;;;130.73;36.63;;;;;;;;;;10440333;28;20213;-75
2021/12/09 22:24:51;;;;;;;122.93;36.58;;;;;;;;;;10434346;28;20219;-75
2021/12/09 22:29:52;;;;;;;105.63;32.97;;;;;;;;;;10443678;28;20175;-75
2021/12/09 22:34:53;;;;;;;123.78;35.47;;;;;;;;;;10438683;28;20222;-75
2021/12/09 22:39:54;;;;;;;115.73;35.17;;;;;;;;;;10435797;28;20178;-75
2021/12/09 22:44:56;;;;;;;124.45;33.70;;;;;;;;;;10436864;28;22367;-75
2021/12/09 22:50:03;;;;;;;123.20;35.38;;;;;;;;;;10445916;28;22082;-75
2021/12/09 22:55:08;;;;;;;109.30;33.42;;;;;;;;;;10442664;28;20206;-74
2021/12/09 23:00:34;;;;;;;103.35;33.58;;;;;;;;;;10442277;28;20201;-76
2021/12/09 23:05:36;;;;;;;126.20;33.83;;;;;;;;;;10392971;28;21142;-76
2021/12/09 23:10:38;;;;;;;119.15;34.40;;;;;;;;;;10398738;28;20192;-75
2021/12/09 23:15:39;;;;;;;99.72;32.30;;;;;;;;;;10401295;28;20305;-75
2021/12/09 23:20:41;;;;;;;109.65;32.70;;;;;;;;;;10387247;28;20191;-76
2021/12/09 23:25:49;;;;;;;118.28;35.92;;;;;;;;;;10401999;28;20741;-76
2021/12/09 23:30:52;;;;;;;99.30;33.30;;;;;;;;;;10403880;28;20211;-75
2021/12/09 23:35:53;;;;;;;92.25;31.17;;;;;;;;;;10403818;28;20207;-76
2021/12/09 23:40:55;;;;;;;91.10;30.38;;;;;;;;;;10424984;28;20630;-75
2021/12/09 23:45:57;;;;;;;83.70;28.70;;;;;;;;;;10404700;28;20220;-75
2021/12/09 23:51:00;;;;;;;83.78;29.58;;;;;;;;;;10405263;28;20787;-75
2021/12/09 23:56:01;;;;;;;77.30;28.23;;;;;;;;;;10389590;28;20179;-74
